Time;durP1;ratioP1;P1;durP2;ratioP2;P2;SDS_P1;SDS_P2;PMS_P1;PMS_P2;Temp;Humidity;BMP_temperature;BMP_pressure;BME280_temperature;BME280_humidity;BME280_pressure;Samples;Min_cycle;Max_cycle;Signal;HPM_P1;HPM_P2
2021/06/11 00:02:22;;;;;;;3.03;2.15;;;16.40;99.90;;;;;;5112551;28;20019;-87
2021/06/11 00:04:47;;;;;;;3.15;2.30;;;18.70;99.90;;;;;;5102458;27;20019;-87
2021/06/11 00:07:13;;;;;;;4.70;2.70;;;16.20;99.90;;;;;;5112301;28;20028;-87
2021/06/11 00:09:38;;;;;;;5.40;2.67;;;16.20;99.90;;;;;;5119672;27;20095;-86
2021/06/11 00:12:04;;;;;;;5.97;2.95;;;17.00;99.90;;;;;;5119049;27;20031;-86
2021/06/11 00:14:30;;;;;;;5.90;3.22;;;16.20;99.90;;;;;;5116631;28;20103;-86
2021/06/11 00:16:56;;;;;;;7.68;3.97;;;16.20;99.90;;;;;;5101311;28;20082;-86
2021/06/11 00:19:23;;;;;;;6.03;3.78;;;16.10;99.90;;;;;;5100382;28;20114;-86
2021/06/11 00:21:49;;;;;;;7.32;3.60;;;16.10;99.90;;;;;;5099618;28;20028;-85
2021/06/11 00:24:14;;;;;;;9.20;3.85;;;15.90;99.90;;;;;;5099777;28;20569;-86
2021/06/11 00:26:40;;;;;;;4.45;3.67;;;15.90;99.90;;;;;;5119337;28;20045;-86
2021/06/11 00:29:06;;;;;;;6.53;3.50;;;15.90;99.90;;;;;;5101656;27;20118;-86
2021/06/11 00:31:31;;;;;;;6.93;4.05;;;15.90;99.90;;;;;;5110754;28;20023;-86
2021/06/11 00:33:57;;;;;;;8.82;4.05;;;15.90;99.90;;;;;;5098979;28;20032;-86
2021/06/11 00:36:22;;;;;;;7.63;4.45;;;15.90;99.90;;;;;;5099261;28;20034;-87
2021/06/11 00:38:48;;;;;;;7.70;4.35;;;15.90;99.90;;;;;;5127407;27;20023;-87
2021/06/11 00:41:13;;;;;;;9.10;5.05;;;15.90;99.90;;;;;;5098902;28;20039;-86
2021/06/11 00:43:39;;;;;;;10.30;4.57;;;15.90;99.90;;;;;;5099531;28;20024;-86
2021/06/11 00:46:04;;;;;;;11.07;5.40;;;15.80;99.90;;;;;;5098724;28;20035;-86
2021/06/11 00:48:30;;;;;;;9.40;5.50;;;15.80;99.90;;;;;;5103813;27;20046;-87
2021/06/11 00:50:56;;;;;;;13.38;7.18;;;15.80;99.90;;;;;;5116835;28;20019;-86
2021/06/11 00:53:21;;;;;;;13.00;6.45;;;15.80;99.90;;;;;;5105987;27;20019;-86
2021/06/11 00:55:48;;;;;;;12.30;7.10;;;15.80;99.90;;;;;;5119358;27;20028;-87
2021/06/11 00:58:16;;;;;;;14.50;6.65;;;16.10;99.90;;;;;;5105328;28;20058;-87
2021/06/11 01:00:42;;;;;;;13.18;6.75;;;15.80;99.90;;;;;;5137220;27;20176;-87
2021/06/11 01:03:11;;;;;;;13.45;7.55;;;15.80;99.90;;;;;;5135237;27;20095;-85
2021/06/11 01:05:37;;;;;;;15.02;7.18;;;15.60;99.90;;;;;;5107392;27;20438;-85
2021/06/11 01:08:04;;;;;;;14.90;8.30;;;15.70;99.90;;;;;;5112112;27;20019;-85
2021/06/11 01:10:30;;;;;;;14.98;7.45;;;15.70;99.90;;;;;;5098854;28;20107;-85
2021/06/11 01:12:57;;;;;;;15.65;8.00;;;15.60;99.90;;;;;;5116289;27;20027;-85
2021/06/11 01:15:23;;;;;;;12.55;6.85;;;15.60;99.90;;;;;;5105591;27;20020;-85
2021/06/11 01:17:53;;;;;;;15.23;7.45;;;15.60;99.90;;;;;;5110166;27;20024;-85
2021/06/11 01:20:20;;;;;;;15.55;8.48;;;15.50;99.90;;;;;;5117330;27;20025;-85
2021/06/11 01:23:19;;;;;;;17.90;9.13;;;16.90;99.90;;;;;;5136589;27;20026;-85
2021/06/11 01:25:57;;;;;;;19.50;8.70;;;15.50;99.90;;;;;;5117392;27;20030;-85
2021/06/11 01:28:26;;;;;;;20.63;9.50;;;15.50;99.90;;;;;;5104279;27;20015;-85
2021/06/11 01:30:54;;;;;;;;;;;15.50;99.90;;;;;;5097623;28;20024;-84
2021/06/11 01:33:21;;;;;;;20.58;9.70;;;15.40;99.90;;;;;;5097043;28;19914;-85
2021/06/11 01:35:52;;;;;;;18.70;9.32;;;15.40;99.90;;;;;;5106732;27;20034;-84
2021/06/11 01:38:22;;;;;;;24.00;10.63;;;15.90;99.90;;;;;;5109312;27;20015;-86
2021/06/11 01:40:50;;;;;;;21.63;11.07;;;15.40;99.90;;;;;;5097196;28;20534;-85
2021/06/11 01:43:19;;;;;;;20.23;10.83;;;15.40;99.90;;;;;;5097161;28;20027;-85
2021/06/11 01:45:44;;;;;;;23.65;11.02;;;15.30;99.90;;;;;;5130910;27;20273;-85
2021/06/11 01:48:11;;;;;;;22.02;11.57;;;15.30;99.90;;;;;;5130049;27;20068;-85
2021/06/11 01:50:38;;;;;;;24.17;11.48;;;15.20;99.90;;;;;;5134429;27;20035;-85
2021/06/11 01:53:05;;;;;;;22.98;11.40;;;17.50;99.90;;;;;;5115335;27;20057;-85
2021/06/11 01:55:33;;;;;;;24.85;11.98;;;15.20;99.90;;;;;;5100116;27;20023;-86
2021/06/11 01:57:59;;;;;;;25.17;12.50;;;15.20;99.90;;;;;;5097193;28;20031;-85
2021/06/11 02:00:26;;;;;;;21.85;10.65;;;15.20;99.90;;;;;;5096791;28;20051;-85
2021/06/11 02:02:53;;;;;;;20.98;10.27;;;15.20;99.90;;;;;;5096883;28;20024;-86
2021/06/11 02:05:19;;;;;;;21.42;10.60;;;15.20;99.90;;;;;;5118229;27;20092;-86
2021/06/11 02:07:48;;;;;;;21.00;9.57;;;15.20;99.90;;;;;;5110766;22;20139;-74
2021/06/11 02:10:17;;;;;;;19.13;8.90;;;15.20;99.90;;;;;;5093660;28;20016;-75
2021/06/11 02:12:44;;;;;;;12.93;6.90;;;15.20;99.90;;;;;;5093708;28;20389;-77
2021/06/11 02:15:12;;;;;;;11.65;5.50;;;15.20;99.90;;;;;;5092591;28;20044;-76
2021/06/11 02:17:43;;;;;;;13.95;6.28;;;15.20;99.90;;;;;;5092374;28;20476;-77
2021/06/11 02:20:14;;;;;;;9.90;5.13;;;15.10;99.90;;;;;;5092766;28;20024;-77
2021/06/11 02:22:42;;;;;;;10.07;5.07;;;15.10;99.90;;;;;;5093997;28;20032;-78
2021/06/11 02:25:09;;;;;;;10.88;4.90;;;15.10;99.90;;;;;;5094382;28;20016;-77
2021/06/11 02:27:37;;;;;;;11.60;5.05;;;15.10;99.90;;;;;;5093220;28;20054;-76
2021/06/11 02:30:09;;;;;;;10.35;4.93;;;15.10;99.90;;;;;;5093702;28;20099;-76
2021/06/11 02:32:36;;;;;;;10.48;4.65;;;15.10;99.90;;;;;;5093086;28;20028;-75
2021/06/11 02:35:04;;;;;;;10.88;5.05;;;15.10;99.90;;;;;;5093209;28;20099;-76
2021/06/11 02:37:30;;;;;;;;;;;15.10;99.90;;;;;;5094196;28;20024;-76
2021/06/11 02:39:56;;;;;;;10.60;5.82;;;15.10;99.90;;;;;;5096369;28;19911;-76
2021/06/11 02:42:23;;;;;;;15.35;6.90;;;15.10;99.90;;;;;;5095798;28;20055;-75
2021/06/11 02:44:52;;;;;;;13.25;6.28;;;15.10;99.90;;;;;;5098251;28;20028;-78
2021/06/11 02:47:49;;;;;;;13.55;6.72;;;15.10;99.90;;;;;;5108154;28;20016;-79
2021/06/11 02:50:47;;;;;;;13.05;6.45;;;15.10;99.90;;;;;;5088348;28;20493;-78
2021/06/11 02:53:14;;;;;;;14.98;7.60;;;15.10;99.90;;;;;;5105713;28;20032;-79
2021/06/11 02:55:43;;;;;;;14.63;8.38;;;15.10;99.90;;;;;;5103701;28;20149;-79
2021/06/11 02:58:21;;;;;;;16.30;8.32;;;15.10;99.90;;;;;;5096127;28;20089;-79
2021/06/11 03:00:47;;;;;;;;;;;15.20;99.90;;;;;;5097797;28;20477;-78
2021/06/11 03:03:22;;;;;;;18.40;8.55;;;15.20;99.90;;;;;;5098819;28;19979;-78
2021/06/11 03:05:53;;;;;;;18.98;10.48;;;15.20;99.90;;;;;;5108815;28;20020;-79
2021/06/11 03:08:23;;;;;;;19.38;9.50;;;15.20;99.90;;;;;;5106459;28;20036;-79
2021/06/11 03:10:52;;;;;;;19.30;9.35;;;15.20;99.90;;;;;;5107763;28;20111;-79
2021/06/11 03:13:20;;;;;;;19.35;10.13;;;15.10;99.90;;;;;;5107662;28;20024;-79
2021/06/11 03:15:46;;;;;;;20.33;11.10;;;15.10;99.90;;;;;;5108807;28;20032;-81
2021/06/11 03:18:28;;;;;;;20.80;10.52;;;15.10;99.90;;;;;;5107283;28;20370;-79
2021/06/11 03:20:57;;;;;;;21.23;10.70;;;15.00;99.90;;;;;;5103269;28;20036;-78
2021/06/11 03:23:31;;;;;;;19.08;9.75;;;15.00;99.90;;;;;;5104268;28;20020;-79
2021/06/11 03:26:02;;;;;;;21.92;11.05;;;15.00;99.90;;;;;;5100417;28;20024;-79
2021/06/11 03:28:28;;;;;;;24.60;11.20;;;14.90;99.90;;;;;;5101081;28;20554;-78
2021/06/11 03:31:01;;;;;;;29.80;12.27;;;14.90;99.90;;;;;;5102988;28;20020;-78
2021/06/11 03:33:35;;;;;;;22.67;11.98;;;14.90;99.90;;;;;;5106768;28;20016;-79
2021/06/11 03:36:27;;;;;;;23.33;11.73;;;14.90;99.90;;;;;;5108583;28;20058;-79
2021/06/11 03:38:56;;;;;;;23.23;12.68;;;15.00;99.90;;;;;;5101819;28;20032;-78
2021/06/11 03:41:22;;;;;;;25.92;14.10;;;15.00;99.90;;;;;;5108374;28;20039;-80
2021/06/11 03:43:50;;;;;;;25.73;13.30;;;16.60;99.90;;;;;;5107756;28;20021;-79
2021/06/11 03:46:18;;;;;;;26.17;14.60;;;15.00;99.90;;;;;;5106480;28;20050;-79
2021/06/11 03:48:47;;;;;;;30.17;14.60;;;15.10;99.90;;;;;;5106118;28;20366;-79
2021/06/11 03:51:14;;;;;;;26.67;14.60;;;15.10;99.90;;;;;;5108591;28;20024;-79
2021/06/11 03:53:41;;;;;;;27.85;14.75;;;15.20;99.90;;;;;;5107711;28;20020;-79
2021/06/11 03:56:10;;;;;;;28.10;15.23;;;15.20;99.90;;;;;;5107319;28;20024;-79
2021/06/11 03:58:36;;;;;;;;;;;15.20;99.90;;;;;;5085056;28;20056;-78
2021/06/11 04:01:04;;;;;;;27.80;14.50;;;15.30;99.90;;;;;;5095924;28;19908;-78
2021/06/11 04:03:29;;;;;;;30.27;15.40;;;15.30;99.90;;;;;;5094627;28;20128;-78
2021/06/11 04:06:05;;;;;;;30.67;15.32;;;15.30;99.90;;;;;;5096521;28;20100;-78
2021/06/11 04:08:33;;;;;;;29.15;15.23;;;15.40;99.90;;;;;;5102236;28;20495;-78
2021/06/11 04:11:00;;;;;;;28.70;16.52;;;15.40;99.90;;;;;;5101757;28;20046;-79
2021/06/11 04:13:44;;;;;;;30.35;15.85;;;15.50;99.90;;;;;;5102120;28;20032;-78
2021/06/11 04:16:21;;;;;;;32.13;15.63;;;15.60;99.90;;;;;;5102870;28;20057;-78
2021/06/11 04:18:49;;;;;;;27.65;14.35;;;15.60;99.90;;;;;;5108295;28;20054;-79
2021/06/11 04:21:23;;;;;;;25.48;13.07;;;15.70;99.90;;;;;;5111665;28;20028;-79
2021/06/11 04:23:52;;;;;;;25.65;11.40;;;15.80;99.90;;;;;;5102876;28;20081;-78
2021/06/11 04:26:21;;;;;;;24.75;12.85;;;16.00;99.90;;;;;;5098200;28;20020;-79
2021/06/11 04:28:47;;;;;;;23.00;11.68;;;16.00;99.90;;;;;;5101211;28;20023;-78
2021/06/11 04:31:12;;;;;;;17.23;8.57;;;16.10;99.90;;;;;;5096654;28;20046;-79
2021/06/11 04:33:38;;;;;;;17.38;7.60;;;17.30;99.90;;;;;;5106577;28;20198;-79
2021/06/11 04:36:04;;;;;;;18.30;8.63;;;16.10;99.90;;;;;;5106140;28;20024;-80
2021/06/11 04:38:53;;;;;;;19.38;9.27;;;16.10;99.90;;;;;;5104281;28;20111;-79
2021/06/11 04:41:19;;;;;;;19.75;8.25;;;16.20;99.90;;;;;;5098510;28;20028;-80
2021/06/11 04:43:44;;;;;;;19.30;8.25;;;16.20;99.90;;;;;;5101329;28;20020;-79
2021/06/11 04:46:10;;;;;;;19.50;7.35;;;16.20;99.90;;;;;;5097228;28;20020;-79
2021/06/11 04:48:36;;;;;;;17.85;7.45;;;16.20;99.90;;;;;;5095423;28;20020;-79
2021/06/11 04:51:02;;;;;;;13.07;6.35;;;16.10;99.90;;;;;;5095290;28;20027;-79
2021/06/11 04:53:27;;;;;;;15.93;7.28;;;16.10;99.90;;;;;;5094522;28;20162;-78
2021/06/11 04:55:55;;;;;;;14.88;6.68;;;16.00;99.90;;;;;;5095514;28;20446;-79
2021/06/11 04:58:21;;;;;;;13.75;5.68;;;16.10;99.90;;;;;;5095649;28;20020;-79
2021/06/11 05:00:48;;;;;;;13.07;5.78;;;16.10;99.90;;;;;;5094322;28;20024;-78
2021/06/11 05:03:13;;;;;;;12.00;5.22;;;16.10;99.90;;;;;;5095129;28;20481;-78
2021/06/11 05:05:39;;;;;;;17.52;7.20;;;16.10;99.90;;;;;;5094671;28;20016;-78
2021/06/11 05:08:05;;;;;;;17.63;6.93;;;16.00;99.90;;;;;;5097115;28;20097;-78
2021/06/11 05:10:30;;;;;;;21.63;8.52;;;16.00;99.90;;;;;;5104904;28;20024;-79
2021/06/11 05:12:56;;;;;;;20.25;8.68;;;16.10;99.90;;;;;;5103233;28;20024;-79
2021/06/11 05:15:24;;;;;;;21.05;8.85;;;16.20;99.90;;;;;;5098412;28;20065;-77
2021/06/11 05:17:50;;;;;;;24.85;8.80;;;16.10;99.90;;;;;;5094849;28;20012;-75
2021/06/11 05:20:16;;;;;;;27.00;10.50;;;16.10;99.90;;;;;;5093159;28;20035;-75
2021/06/11 05:22:41;;;;;;;26.45;10.38;;;16.10;99.90;;;;;;5094261;28;20028;-75
2021/06/11 05:25:08;;;;;;;24.95;10.65;;;16.10;99.90;;;;;;5093145;28;20494;-75
2021/06/11 05:27:33;;;;;;;28.52;10.23;;;16.20;99.90;;;;;;5092824;28;20020;-75
2021/06/11 05:29:59;;;;;;;28.08;11.30;;;16.30;99.90;;;;;;5094676;28;20354;-74
2021/06/11 05:32:25;;;;;;;27.45;11.50;;;16.40;99.90;;;;;;5092683;28;20495;-74
2021/06/11 05:34:50;;;;;;;31.38;12.60;;;16.50;99.90;;;;;;5094558;28;20028;-74
2021/06/11 05:37:16;;;;;;;34.78;12.07;;;16.50;99.90;;;;;;5094086;28;20020;-74
2021/06/11 05:39:41;;;;;;;41.28;13.65;;;16.60;99.90;;;;;;5093956;28;20119;-74
2021/06/11 05:42:07;;;;;;;33.35;12.13;;;16.80;99.90;;;;;;5093834;28;20024;-74
2021/06/11 05:44:33;;;;;;;37.10;13.40;;;16.90;99.90;;;;;;5104164;22;20044;-89
2021/06/11 05:47:04;;;;;;;32.63;13.02;;;17.60;99.90;;;;;;5078932;28;20016;-89
2021/06/11 05:49:29;;;;;;;24.98;10.40;;;17.60;99.90;;;;;;5078011;28;20020;-90
2021/06/11 05:51:55;;;;;;;26.80;11.73;;;17.40;99.90;;;;;;5077890;28;20028;-89
2021/06/11 05:54:20;;;;;;;23.90;11.43;;;17.70;99.90;;;;;;5077228;28;20484;-89
2021/06/11 05:56:46;;;;;;;22.70;9.98;;;19.10;99.90;;;;;;5096504;28;20106;-89
2021/06/11 05:59:14;;;;;;;21.58;10.32;;;20.60;99.90;;;;;;5076954;28;20028;-89
2021/06/11 06:01:40;;;;;;;21.65;10.50;;;21.70;99.90;;;;;;5076822;28;20065;-89
2021/06/11 06:04:05;;;;;;;22.55;10.00;;;17.20;99.90;;;;;;5095045;28;20024;-88
2021/06/11 06:06:31;;;;;;;22.70;9.93;;;18.00;99.90;;;;;;5076960;28;20473;-89
2021/06/11 06:08:56;;;;;;;20.27;9.90;;;20.40;99.90;;;;;;5095411;28;20485;-90
2021/06/11 06:11:22;;;;;;;20.63;10.15;;;19.30;99.90;;;;;;5095831;28;20055;-88
2021/06/11 06:13:48;;;;;;;20.90;9.48;;;20.20;99.90;;;;;;5088794;28;20024;-89
2021/06/11 06:16:13;;;;;;;19.15;9.43;;;18.60;99.90;;;;;;5093735;28;20028;-89
2021/06/11 06:18:39;;;;;;;20.25;9.80;;;18.40;99.90;;;;;;5080376;28;20028;-89
2021/06/11 06:21:05;;;;;;;20.88;9.82;;;17.80;99.90;;;;;;5077803;28;20020;-88
2021/06/11 06:23:31;;;;;;;18.92;9.63;;;17.80;99.90;;;;;;5076568;28;20101;-88
2021/06/11 06:25:59;;;;;;;19.25;9.80;;;18.70;99.90;;;;;;5094622;28;20028;-89
2021/06/11 06:28:25;;;;;;;;;;;17.80;99.90;;;;;;5076712;28;20105;-89
2021/06/11 06:30:50;;;;;;;17.83;9.25;;;17.90;99.90;;;;;;5094211;28;19948;-89
2021/06/11 06:33:16;;;;;;;22.13;10.15;;;18.00;99.90;;;;;;5076468;28;20385;-89
2021/06/11 06:35:41;;;;;;;22.75;10.05;;;18.30;99.90;;;;;;5076899;28;20035;-89
2021/06/11 06:38:08;;;;;;;19.00;9.60;;;18.40;99.90;;;;;;5094265;28;20111;-89
2021/06/11 06:40:35;;;;;;;22.98;11.38;;;18.60;99.90;;;;;;5095097;28;20477;-89
2021/06/11 06:43:00;;;;;;;21.75;10.30;;;18.70;99.90;;;;;;5085085;28;20017;-90
2021/06/11 06:45:26;;;;;;;20.52;10.27;;;18.40;99.90;;;;;;5057488;28;20111;-89
2021/06/11 06:47:51;;;;;;;22.85;10.25;;;18.80;99.90;;;;;;5092037;28;20032;-89
2021/06/11 06:50:19;;;;;;;22.08;10.68;;;18.90;99.90;;;;;;5076802;28;20039;-89
2021/06/11 06:52:45;;;;;;;26.13;12.18;;;18.90;99.90;;;;;;5076589;28;20024;-89
2021/06/11 06:55:12;;;;;;;23.45;11.63;;;19.00;99.90;;;;;;5076371;28;20021;-89
2021/06/11 06:57:38;;;;;;;28.23;12.30;;;19.20;99.90;;;;;;5076231;28;20024;-89
2021/06/11 07:00:08;;;;;;;23.38;11.80;;;19.40;99.90;;;;;;5068651;28;20039;-87
2021/06/11 07:02:34;;;;;;;22.00;11.07;;;19.50;99.90;;;;;;5071159;28;20058;-89
2021/06/11 07:05:00;;;;;;;22.00;10.63;;;19.60;99.90;;;;;;5077134;28;20050;-89
2021/06/11 07:07:25;;;;;;;22.73;11.07;;;19.70;99.90;;;;;;5076820;28;20016;-89
2021/06/11 07:09:51;;;;;;;21.38;10.82;;;19.90;99.90;;;;;;5076977;28;20496;-89
2021/06/11 07:12:17;;;;;;;22.02;11.20;;;19.70;99.90;;;;;;5094372;28;20032;-88
2021/06/11 07:14:42;;;;;;;20.65;10.82;;;20.80;99.90;;;;;;5094352;28;20533;-89
2021/06/11 07:17:10;;;;;;;18.60;10.02;;;21.00;99.90;;;;;;5076121;28;20020;-89
2021/06/11 07:19:36;;;;;;;24.90;11.00;;;20.20;99.90;;;;;;5076108;28;20028;-87
2021/06/11 07:22:06;;;;;;;19.20;10.73;;;20.20;99.90;;;;;;5077522;28;20550;-88
2021/06/11 07:24:33;;;;;;;20.08;11.32;;;20.10;99.90;;;;;;5080173;28;20477;-88
2021/06/11 07:26:59;;;;;;;22.65;11.60;;;22.20;99.90;;;;;;5101132;28;20036;-89
2021/06/11 07:29:42;;;;;;;20.00;11.15;;;20.30;99.90;;;;;;5100894;28;20020;-89
2021/06/11 07:32:08;;;;;;;21.77;11.43;;;20.30;99.90;;;;;;5081821;28;20036;-88
2021/06/11 07:34:34;;;;;;;20.63;9.93;;;20.40;99.90;;;;;;5098203;28;20028;-89
2021/06/11 07:36:59;;;;;;;23.95;11.90;;;20.50;99.90;;;;;;5063574;28;20051;-88
2021/06/11 07:39:25;;;;;;;23.38;12.85;;;20.50;99.90;;;;;;5072997;28;20107;-89
2021/06/11 07:41:54;;;;;;;23.95;12.15;;;20.40;99.90;;;;;;5078428;28;20115;-89
2021/06/11 07:44:20;;;;;;;18.23;10.60;;;21.80;99.90;;;;;;5079560;28;20384;-89
2021/06/11 07:46:55;;;;;;;24.08;12.15;;;22.70;99.90;;;;;;5099460;28;20038;-89
2021/06/11 07:49:23;;;;;;;21.50;11.95;;;22.60;99.90;;;;;;5079397;28;20432;-89
2021/06/11 07:51:48;;;;;;;22.77;12.15;;;20.30;99.90;;;;;;5080358;28;20020;-90
2021/06/11 07:54:14;;;;;;;24.42;12.07;;;20.30;99.90;;;;;;5077182;28;20028;-90
2021/06/11 07:56:39;;;;;;;25.90;13.52;;;22.10;99.90;;;;;;5079360;28;20024;-90
2021/06/11 07:59:05;;;;;;;26.85;13.65;;;21.40;99.90;;;;;;5097541;28;20051;-89
2021/06/11 08:01:35;;;;;;;28.02;13.48;;;20.40;99.90;;;;;;5078966;28;20035;-89
2021/06/11 08:04:01;;;;;;;29.70;13.93;;;20.50;99.90;;;;;;5079221;28;20469;-89
2021/06/11 08:06:27;;;;;;;29.98;14.80;;;22.30;99.90;;;;;;5078720;28;20023;-90
2021/06/11 08:08:52;;;;;;;30.58;14.07;;;22.10;99.90;;;;;;5079017;28;20119;-90
2021/06/11 08:11:18;;;;;;;26.15;12.82;;;21.70;99.90;;;;;;5078678;28;20055;-90
2021/06/11 08:13:44;;;;;;;34.78;16.35;;;21.20;99.90;;;;;;5096704;28;20028;-89
2021/06/11 08:16:10;;;;;;;28.00;14.88;;;21.10;99.90;;;;;;5078553;28;20362;-90
2021/06/11 08:18:35;;;;;;;34.55;16.58;;;21.10;99.90;;;;;;5079471;28;20027;-90
2021/06/11 08:21:01;;;;;;;33.45;16.10;;;21.10;99.90;;;;;;5080618;28;20020;-89
2021/06/11 08:23:26;;;;;;;33.60;16.75;;;21.30;99.90;;;;;;5079699;28;20468;-90
2021/06/11 08:25:52;;;;;;;39.50;17.65;;;23.10;99.90;;;;;;5079779;28;20012;-90
2021/06/11 08:28:23;;;;;;;36.70;19.00;;;21.30;99.90;;;;;;5094640;28;20039;-88
2021/06/11 08:30:52;;;;;;;38.40;19.05;;;21.20;99.90;;;;;;5080476;28;20033;-90
2021/06/11 08:35:46;;;;;;;38.42;19.30;;;21.60;99.90;;;;;;5074374;28;20044;-74
2021/06/11 08:38:12;;;;;;;39.08;18.45;;;21.50;99.90;;;;;;5079491;28;20365;-75
2021/06/11 08:40:38;;;;;;;41.10;20.02;;;21.70;99.90;;;;;;5089448;28;20027;-75
2021/06/11 08:43:05;;;;;;;38.28;18.40;;;22.00;99.90;;;;;;5074830;28;20025;-74
2021/06/11 08:45:30;;;;;;;36.90;19.38;;;22.20;99.90;;;;;;5083053;28;20012;-79
2021/06/11 08:47:58;;;;;;;37.20;18.67;;;22.30;99.90;;;;;;5080941;28;20031;-79
2021/06/11 08:50:29;;;;;;;38.65;18.42;;;22.50;99.90;;;;;;5086713;28;20019;-79
2021/06/11 08:52:56;;;;;;;34.95;17.52;;;22.20;99.90;;;;;;5088694;28;20024;-79
2021/06/11 08:55:22;;;;;;;30.35;16.05;;;22.40;99.90;;;;;;5095111;28;20107;-79
2021/06/11 08:57:49;;;;;;;32.60;15.95;;;23.10;99.90;;;;;;5088539;28;20042;-79
2021/06/11 09:00:15;;;;;;;30.52;16.50;;;22.80;99.90;;;;;;5090878;28;20370;-80
2021/06/11 09:08:24;;;;;;;26.83;14.35;;;23.00;99.90;;;;;;5051580;28;20413;-75
2021/06/11 09:10:52;;;;;;;26.42;14.45;;;23.20;99.90;;;;;;5052360;28;20033;-76
2021/06/11 09:13:22;;;;;;;26.25;13.55;;;23.30;99.90;;;;;;5035874;28;20025;-76
2021/06/11 09:15:48;;;;;;;26.92;14.10;;;23.40;99.90;;;;;;5053828;28;20037;-76
2021/06/11 09:18:23;;;;;;;25.20;13.73;;;23.10;99.90;;;;;;5035913;28;20021;-76
2021/06/11 09:20:49;;;;;;;25.20;14.40;;;22.90;99.90;;;;;;5053567;28;20036;-76
2021/06/11 09:23:17;;;;;;;26.95;14.82;;;22.80;99.90;;;;;;5035650;28;20482;-76
2021/06/11 09:25:45;;;;;;;24.47;13.00;;;22.70;99.90;;;;;;5053362;28;20031;-76
2021/06/11 09:28:12;;;;;;;27.60;14.38;;;22.90;99.90;;;;;;5053796;28;20033;-76
2021/06/11 09:30:38;;;;;;;28.98;15.93;;;23.00;99.90;;;;;;5054293;28;20397;-78
2021/06/11 09:33:11;;;;;;;31.23;17.20;;;23.00;99.90;;;;;;5039484;28;20028;-78
2021/06/11 09:35:48;;;;;;;26.33;14.82;;;23.20;99.90;;;;;;5058234;28;20029;-78
2021/06/11 09:38:19;;;;;;;31.02;15.90;;;23.10;99.90;;;;;;5058881;28;20040;-78
2021/06/11 09:40:48;;;;;;;29.00;15.80;;;23.00;99.90;;;;;;5039760;28;20112;-78
2021/06/11 09:43:13;;;;;;;;;;;23.20;99.90;;;;;;5040520;28;20070;-78
2021/06/11 09:45:39;;;;;;;25.40;13.20;;;23.50;99.90;;;;;;5056747;28;19913;-78
2021/06/11 09:48:24;;;;;;;22.95;13.23;;;23.70;99.90;;;;;;5039602;28;20496;-79
2021/06/11 09:50:51;;;;;;;23.05;13.93;;;23.80;99.90;;;;;;5057876;28;20044;-78
2021/06/11 09:53:22;;;;;;;22.40;13.63;;;24.00;99.90;;;;;;5058131;28;20075;-79
2021/06/11 09:55:53;;;;;;;26.85;13.38;;;23.80;99.90;;;;;;5058069;28;20116;-78
2021/06/11 09:58:27;;;;;;;20.98;12.70;;;23.90;99.90;;;;;;5058381;28;20063;-79
2021/06/11 10:00:58;;;;;;;20.17;11.07;;;24.00;99.90;;;;;;5057000;28;20034;-79
2021/06/11 10:03:28;;;;;;;21.27;13.68;;;24.20;99.90;;;;;;5057151;28;20013;-78
2021/06/11 10:05:57;;;;;;;22.35;12.45;;;24.20;99.90;;;;;;5057394;28;20024;-78
2021/06/11 10:08:24;;;;;;;23.63;12.57;;;24.00;99.90;;;;;;5057451;28;20036;-79
2021/06/11 10:10:52;;;;;;;21.53;12.00;;;23.90;99.90;;;;;;5057692;28;20033;-79
2021/06/11 10:13:19;;;;;;;19.95;11.07;;;23.80;99.90;;;;;;5057318;28;20059;-79
2021/06/11 10:15:47;;;;;;;22.70;12.30;;;23.90;99.90;;;;;;5057252;28;20017;-78
2021/06/11 10:18:13;;;;;;;17.02;10.68;;;23.80;99.90;;;;;;5057517;28;20029;-78
2021/06/11 10:20:40;;;;;;;14.85;10.10;;;23.70;99.90;;;;;;5056628;28;20029;-79
2021/06/11 10:23:08;;;;;;;18.38;11.88;;;23.50;99.90;;;;;;5038198;28;20018;-78
2021/06/11 10:25:34;;;;;;;18.52;10.73;;;23.60;99.90;;;;;;5057045;28;20029;-78
2021/06/11 10:28:01;;;;;;;18.15;10.65;;;24.00;99.90;;;;;;5056812;28;20029;-79
2021/06/11 10:30:28;;;;;;;14.07;9.77;;;24.50;99.90;;;;;;5038412;28;20020;-78
2021/06/11 10:32:55;;;;;;;15.82;9.88;;;24.60;99.90;;;;;;5054490;28;20052;-79
2021/06/11 10:35:40;;;;;;;14.25;9.50;;;24.50;99.90;;;;;;5033960;28;20032;-78
2021/06/11 10:38:29;;;;;;;15.73;9.82;;;24.50;99.90;;;;;;5036513;28;20025;-78
2021/06/11 10:40:57;;;;;;;16.77;10.85;;;24.50;99.90;;;;;;5053393;28;20024;-78
2021/06/11 10:43:49;;;;;;;17.13;11.27;;;24.70;99.90;;;;;;5038215;28;20023;-78
2021/06/11 10:46:25;;;;;;;21.70;13.48;;;24.90;99.90;;;;;;5051779;28;20030;-78
2021/06/11 10:48:56;;;;;;;20.45;13.20;;;24.90;99.90;;;;;;5056313;28;20028;-78
2021/06/11 10:51:45;;;;;;;18.50;12.50;;;24.80;99.90;;;;;;5038133;28;20029;-78
2021/06/11 10:54:29;;;;;;;;;;;24.50;99.90;;;;;;5055677;28;20025;-78
2021/06/11 10:56:57;;;;;;;21.60;14.20;;;24.40;99.90;;;;;;5037037;28;19915;-79
2021/06/11 10:59:34;;;;;;;25.20;13.70;;;24.90;99.90;;;;;;5058297;28;20025;-78
2021/06/11 11:02:01;;;;;;;21.65;14.23;;;25.00;99.80;;;;;;5041091;28;20037;-79
2021/06/11 11:04:29;;;;;;;19.40;12.90;;;25.30;99.80;;;;;;5059577;28;20017;-78
2021/06/11 11:06:54;;;;;;;18.60;12.93;;;25.60;98.90;;;;;;5042396;28;20025;-78
2021/06/11 11:09:20;;;;;;;16.67;11.13;;;25.80;97.00;;;;;;5060952;28;20013;-78
2021/06/11 11:11:47;;;;;;;15.50;11.05;;;25.90;98.40;;;;;;5060892;28;20029;-78
2021/06/11 11:14:39;;;;;;;18.45;11.82;;;26.10;96.40;;;;;;5062024;28;20385;-79
2021/06/11 11:17:06;;;;;;;16.75;11.38;;;25.90;96.60;;;;;;5061072;28;20021;-79
2021/06/11 11:19:52;;;;;;;17.40;10.90;;;25.70;95.90;;;;;;5043485;28;20021;-78
2021/06/11 11:22:25;;;;;;;15.50;9.98;;;25.40;98.20;;;;;;5061338;28;20479;-78
2021/06/11 11:24:52;;;;;;;16.23;10.40;;;25.30;98.90;;;;;;5061119;28;20111;-79
2021/06/11 11:27:18;;;;;;;14.52;10.40;;;25.10;98.40;;;;;;5043219;28;20017;-79
2021/06/11 11:29:43;;;;;;;17.95;11.25;;;25.30;98.80;;;;;;5060997;28;20508;-79
2021/06/11 11:32:09;;;;;;;16.70;11.32;;;25.10;99.30;;;;;;5042296;28;20087;-79
2021/06/11 11:34:35;;;;;;;13.05;9.43;;;25.30;98.10;;;;;;5060857;28;20048;-78
2021/06/11 11:37:00;;;;;;;10.70;8.32;;;25.30;97.80;;;;;;5060895;28;20044;-78
2021/06/11 11:39:26;;;;;;;10.75;8.20;;;25.80;99.40;;;;;;5043273;28;20506;-79
2021/06/11 11:41:56;;;;;;;10.50;7.78;;;26.00;96.50;;;;;;5060392;28;20025;-78
2021/06/11 11:44:22;;;;;;;10.60;7.70;;;26.70;93.90;;;;;;5042286;28;20017;-79
2021/06/11 11:46:49;;;;;;;10.65;7.10;;;26.70;93.60;;;;;;5060432;28;20025;-78
2021/06/11 11:49:15;;;;;;;11.70;8.45;;;26.40;92.60;;;;;;5059621;28;20028;-78
2021/06/11 11:51:41;;;;;;;9.85;7.45;;;26.50;92.40;;;;;;5041790;28;20029;-78
2021/06/11 11:54:07;;;;;;;11.55;7.03;;;26.80;93.60;;;;;;5059838;28;20059;-79
2021/06/11 11:56:33;;;;;;;12.48;8.98;;;27.00;92.20;;;;;;5060722;28;20025;-78
2021/06/11 11:58:58;;;;;;;12.15;8.73;;;27.10;91.00;;;;;;5042970;28;20085;-78
2021/06/11 12:01:24;;;;;;;10.88;7.95;;;27.00;90.10;;;;;;5064932;22;20042;-88
2021/06/11 12:06:57;;;;;;;13.77;10.05;;;27.00;90.10;;;;;;5056835;28;20476;-87
2021/06/11 12:09:23;;;;;;;17.55;12.45;;;29.70;91.60;;;;;;5048579;28;20033;-88
2021/06/11 12:11:52;;;;;;;16.52;11.38;;;26.90;91.60;;;;;;5039798;28;20023;-88
2021/06/11 12:14:20;;;;;;;18.48;13.50;;;29.70;92.70;;;;;;5055730;28;20402;-87
2021/06/11 12:16:46;;;;;;;17.17;12.13;;;28.30;90.80;;;;;;5056448;28;20496;-88
2021/06/11 12:19:14;;;;;;;16.17;11.43;;;28.10;90.40;;;;;;5038653;28;20017;-88
2021/06/11 12:21:40;;;;;;;;;;;28.70;84.50;;;;;;5039058;28;20101;-87
2021/06/11 12:24:09;;;;;;;15.00;11.88;;;28.90;85.40;;;;;;5038648;28;20353;-87
2021/06/11 12:26:35;;;;;;;17.83;12.93;;;28.60;82.10;;;;;;5055994;28;20032;-88
2021/06/11 12:29:01;;;;;;;18.35;12.32;;;27.40;82.10;;;;;;5038135;28;20021;-87
2021/06/11 12:31:30;;;;;;;18.42;11.88;;;27.30;86.10;;;;;;5056133;28;20021;-88
2021/06/11 12:33:56;;;;;;;18.00;12.18;;;27.00;86.30;;;;;;5079843;22;20108;-77
2021/06/11 12:36:22;;;;;;;16.52;13.05;;;26.90;87.40;;;;;;5087810;28;20528;-77
2021/06/11 12:38:47;;;;;;;17.60;12.10;;;26.60;88.80;;;;;;5074832;28;20024;-76
2021/06/11 12:41:15;;;;;;;15.38;11.43;;;27.10;88.80;;;;;;5056200;28;20469;-78
2021/06/11 12:46:26;;;;;;;11.07;8.77;;;27.60;82.60;;;;;;5075038;28;20059;-77
2021/06/11 12:48:52;;;;;;;13.43;10.60;;;28.30;82.60;;;;;;5057149;28;20032;-77
2021/06/11 12:51:19;;;;;;;13.20;10.48;;;28.90;78.40;;;;;;5075372;28;20024;-77
2021/06/11 12:53:45;;;;;;;19.75;12.80;;;28.70;76.70;;;;;;5057019;28;20028;-77